createdAt,value
2019-03-09T00:00:43.729Z,99301.20
2019-03-09T00:03:14.675Z,99301.20
2019-03-09T00:05:45.097Z,99301.89
2019-03-09T00:08:15.531Z,99293.34
2019-03-09T00:10:46.048Z,99286.39
2019-03-09T00:13:16.478Z,99284.23
2019-03-09T00:15:47.207Z,99283.49
2019-03-09T00:18:18.121Z,99275.88
2019-03-09T00:20:48.551Z,99275.52
2019-03-09T00:23:35.317Z,99260.17
2019-03-09T00:26:25.998Z,99266.38
2019-03-09T00:29:04.482Z,99260.09
2019-03-09T00:31:42.871Z,99253.01
2019-03-09T00:34:13.670Z,99242.50
2019-03-09T00:36:44.471Z,99236.48
2019-03-09T00:39:15.176Z,99231.80
2019-03-09T00:41:45.948Z,99226.14
2019-03-09T00:44:16.719Z,99226.14
2019-03-09T00:46:48.195Z,99213.72
2019-03-09T00:49:18.620Z,99213.52
2019-03-09T00:51:49.046Z,99208.59
2019-03-09T00:54:19.834Z,99201.25
2019-03-09T00:56:50.265Z,99205.30
2019-03-09T00:59:20.696Z,99189.61
2019-03-09T01:01:51.533Z,99181.99
2019-03-09T01:04:21.971Z,99178.32
2019-03-09T01:06:52.487Z,99170.00
2019-03-09T01:09:24.719Z,99168.73
2019-03-09T01:11:55.203Z,99159.76
2019-03-09T01:14:25.630Z,99160.08
2019-03-09T01:16:56.080Z,99149.13
2019-03-09T01:19:26.532Z,99143.81
2019-03-09T01:21:57.337Z,99147.01
2019-03-09T01:24:27.743Z,99141.19
2019-03-09T01:26:58.514Z,99133.27
2019-03-09T01:29:29.840Z,99134.58
2019-03-09T01:32:00.271Z,99121.10
2019-03-09T01:34:31.431Z,99114.17
2019-03-09T01:37:01.935Z,99104.36
2019-03-09T01:39:32.427Z,99096.77
2019-03-09T01:42:03.500Z,99092.91
2019-03-09T01:44:33.980Z,99083.72
2019-03-09T01:47:04.416Z,99076.99
2019-03-09T01:49:35.224Z,99068.47
2019-03-09T01:52:05.651Z,99061.48
2019-03-09T01:54:36.395Z,99051.17
2019-03-09T01:57:06.895Z,99048.97
2019-03-09T01:59:37.366Z,99042.17
2019-03-09T02:02:08.118Z,99037.02
2019-03-09T02:04:39.168Z,99034.44
2019-03-09T02:07:09.607Z,99023.12
2019-03-09T02:09:40.044Z,99006.12
2019-03-09T02:12:10.916Z,99003.17
2019-03-09T02:14:41.346Z,98998.30
2019-03-09T02:17:11.779Z,98998.97
2019-03-09T02:19:42.268Z,98989.20
2019-03-09T02:22:13.785Z,98986.00
2019-03-09T02:24:44.754Z,98979.41
2019-03-09T02:27:15.210Z,98967.95
2019-03-09T02:29:45.644Z,98964.75
2019-03-09T02:32:16.421Z,98945.68
2019-03-09T02:34:48.571Z,98951.17
2019-03-09T02:37:19.037Z,98940.37
2019-03-09T02:40:00.557Z,98927.56
2019-03-09T02:42:32.585Z,98928.40
2019-03-09T02:45:04.450Z,98922.23
2019-03-09T02:47:35.044Z,98919.89
2019-03-09T02:50:06.549Z,98911.25
2019-03-09T02:52:36.983Z,98896.84
2019-03-09T02:55:07.760Z,98887.39
2019-03-09T02:57:38.255Z,98879.27
2019-03-09T03:00:11.193Z,98872.94
2019-03-09T03:02:44.807Z,98859.82
2019-03-09T03:05:16.584Z,98861.30
2019-03-09T03:07:47.066Z,98849.03
2019-03-09T03:10:17.539Z,98858.66
2019-03-09T03:12:48.036Z,98852.52
2019-03-09T03:15:43.650Z,98844.23
2019-03-09T03:18:14.098Z,98826.95
2019-03-09T03:20:44.608Z,98826.27
2019-03-09T03:23:15.135Z,98823.44
2019-03-09T03:25:47.067Z,98826.60
2019-03-09T03:28:17.493Z,98818.95
2019-03-09T03:30:48.004Z,98814.92
2019-03-09T03:33:18.425Z,98814.09
2019-03-09T03:35:49.981Z,98801.62
2019-03-09T03:38:20.422Z,98801.77
2019-03-09T03:40:52.681Z,98796.47
2019-03-09T03:43:23.124Z,98782.20
2019-03-09T03:45:53.539Z,98783.17
2019-03-09T03:48:24.041Z,98781.14
2019-03-09T03:50:54.473Z,98779.98
2019-03-09T03:53:25.242Z,98784.62
2019-03-09T03:55:55.812Z,98788.31
2019-03-09T03:58:26.240Z,98779.68
2019-03-09T04:00:56.762Z,98779.65
2019-03-09T04:03:27.238Z,98770.88
2019-03-09T04:05:57.655Z,98780.45
2019-03-09T04:08:28.747Z,98775.30
2019-03-09T04:10:59.566Z,98773.63
2019-03-09T04:13:30.158Z,98769.00
2019-03-09T04:16:00.574Z,98775.80
2019-03-09T04:18:31.020Z,98786.23
2019-03-09T04:21:02.063Z,98796.33
2019-03-09T04:23:34.152Z,98777.61
2019-03-09T04:26:04.599Z,98778.44
2019-03-09T04:28:35.233Z,98778.09
2019-03-09T04:31:05.961Z,98777.59
2019-03-09T04:33:36.380Z,98783.92
2019-03-09T04:36:07.242Z,98792.88
2019-03-09T04:38:38.078Z,98785.55
2019-03-09T04:41:08.495Z,98788.20
2019-03-09T04:43:39.048Z,98777.42
2019-03-09T04:46:09.480Z,98778.62
2019-03-09T04:48:39.920Z,98770.66
2019-03-09T04:51:10.348Z,98770.33
2019-03-09T04:53:41.172Z,98755.38
2019-03-09T04:56:11.920Z,98757.54
2019-03-09T04:58:42.334Z,98745.64
2019-03-09T05:01:12.789Z,98742.14
2019-03-09T05:03:43.386Z,98738.84
2019-03-09T05:06:17.039Z,98744.33
2019-03-09T05:09:16.534Z,98756.27
2019-03-09T05:11:47.283Z,98763.74
2019-03-09T05:14:21.242Z,98754.16
2019-03-09T05:16:51.747Z,98754.64
2019-03-09T05:19:22.178Z,98761.28
2019-03-09T05:21:52.943Z,98758.52
2019-03-09T05:24:23.419Z,98766.30
2019-03-09T05:26:53.844Z,98763.31
2019-03-09T05:29:24.259Z,98751.02
2019-03-09T05:31:54.715Z,98754.19
2019-03-09T05:34:25.136Z,98748.23
2019-03-09T05:36:55.873Z,98743.93
2019-03-09T05:39:26.293Z,98748.09
2019-03-09T05:41:56.719Z,98756.24
2019-03-09T05:44:27.174Z,98758.06
2019-03-09T05:46:57.596Z,98755.07
2019-03-09T05:49:28.387Z,98759.23
2019-03-09T05:52:28.654Z,98748.95
2019-03-09T05:55:00.412Z,98752.59
2019-03-09T05:57:30.800Z,98750.45
2019-03-09T06:00:01.239Z,98745.95
2019-03-09T06:02:32.055Z,98740.65
2019-03-09T06:05:02.777Z,98746.13
2019-03-09T06:07:33.208Z,98733.70
2019-03-09T06:10:03.659Z,98741.00
2019-03-09T06:12:34.082Z,98749.65
2019-03-09T06:15:04.595Z,98752.48
2019-03-09T06:17:35.046Z,98747.17
2019-03-09T06:20:06.301Z,98760.80
2019-03-09T06:22:36.720Z,98764.95
2019-03-09T06:25:07.359Z,98765.63
2019-03-09T06:27:37.767Z,98760.96
2019-03-09T06:30:08.827Z,98787.23
2019-03-09T06:33:16.242Z,98783.89
2019-03-09T06:35:48.035Z,98789.89
2019-03-09T06:38:37.587Z,98801.84
2019-03-09T06:41:09.915Z,98801.36
2019-03-09T06:43:40.339Z,98817.80
2019-03-09T06:46:10.764Z,98813.64
2019-03-09T06:48:41.214Z,98818.47
2019-03-09T06:51:11.635Z,98825.29
2019-03-09T06:53:42.454Z,98829.95
2019-03-09T06:56:12.897Z,98836.91
2019-03-09T06:58:43.326Z,98846.39
2019-03-09T07:01:20.956Z,98839.09
2019-03-09T07:03:51.750Z,98841.75
2019-03-09T07:06:22.181Z,98859.72
2019-03-09T07:08:52.612Z,98866.02
2019-03-09T07:11:23.093Z,98866.02
2019-03-09T07:13:53.830Z,98860.53
2019-03-09T07:16:24.614Z,98883.98
2019-03-09T07:18:55.127Z,98871.67
2019-03-09T07:21:25.563Z,98882.83
2019-03-09T07:23:56.082Z,98877.67
2019-03-09T07:26:26.515Z,98872.00
2019-03-09T07:28:58.078Z,98871.66
2019-03-09T07:31:28.600Z,98881.30
2019-03-09T07:34:23.570Z,98883.78
2019-03-09T07:36:54.355Z,98869.65
2019-03-09T07:39:25.143Z,98876.12
2019-03-09T07:41:55.594Z,98882.78
2019-03-09T07:44:26.015Z,98898.28
2019-03-09T07:46:56.483Z,98904.75
2019-03-09T07:49:26.915Z,98915.38
2019-03-09T07:51:57.343Z,98928.88
2019-03-09T07:54:27.794Z,98915.05
2019-03-09T07:56:58.247Z,98918.55
2019-03-09T07:59:29.342Z,98930.19
2019-03-09T08:02:00.545Z,98929.87
2019-03-09T08:04:30.975Z,98934.19
2019-03-09T08:07:01.394Z,98938.01
2019-03-09T08:09:31.961Z,98928.87
2019-03-09T08:12:03.482Z,98947.16
2019-03-09T08:14:34.279Z,98946.17
2019-03-09T08:17:05.095Z,98951.51
2019-03-09T08:19:35.523Z,98957.30
2019-03-09T08:22:06.009Z,98952.80
2019-03-09T08:24:36.443Z,98944.46
2019-03-09T08:27:08.771Z,98950.66
2019-03-09T08:29:39.532Z,98951.97
2019-03-09T08:32:09.993Z,98951.00
2019-03-09T08:34:40.484Z,98952.64
2019-03-09T08:37:10.998Z,98953.30
2019-03-09T08:39:42.419Z,98951.94
2019-03-09T08:42:12.978Z,98966.27
2019-03-09T08:44:43.503Z,98947.23
2019-03-09T08:47:13.949Z,98956.24
2019-03-09T08:49:44.401Z,98968.86
2019-03-09T08:52:14.985Z,98953.36
2019-03-09T08:54:45.594Z,98972.85
2019-03-09T08:57:17.670Z,98969.69
2019-03-09T08:59:48.281Z,98980.05
2019-03-09T09:02:19.184Z,98976.39
2019-03-09T09:04:52.903Z,98972.04
2019-03-09T09:07:23.503Z,98978.01
2019-03-09T09:09:55.802Z,98980.00
2019-03-09T09:12:28.006Z,98983.18
2019-03-09T09:14:58.434Z,98980.52
2019-03-09T09:17:29.181Z,98984.66
2019-03-09T09:19:59.982Z,98991.46
2019-03-09T09:22:30.469Z,98993.16
2019-03-09T09:25:01.871Z,99000.67
2019-03-09T09:27:32.310Z,99001.65
2019-03-09T09:30:03.543Z,99006.32
2019-03-09T09:32:33.979Z,99002.09
2019-03-09T09:35:04.892Z,99005.94
2019-03-09T09:37:35.320Z,99007.81
2019-03-09T09:40:07.785Z,99010.28
2019-03-09T09:42:38.559Z,98997.63
2019-03-09T09:45:11.798Z,99012.81
2019-03-09T09:47:42.689Z,98998.14
2019-03-09T09:50:13.407Z,98986.34
2019-03-09T09:52:44.800Z,98999.76
2019-03-09T09:55:15.906Z,99008.38
2019-03-09T09:57:46.767Z,99009.89
2019-03-09T10:00:19.538Z,98995.78
2019-03-09T10:02:50.013Z,99012.02
2019-03-09T10:05:20.473Z,99009.84
2019-03-09T10:07:52.056Z,99005.31
2019-03-09T10:10:22.613Z,99000.19
2019-03-09T10:12:53.065Z,98994.73
2019-03-09T10:15:25.192Z,98990.58
2019-03-09T10:17:55.920Z,98993.06
2019-03-09T10:20:26.458Z,98999.88
2019-03-09T10:23:04.169Z,98996.22
2019-03-09T10:25:29.789Z,98993.64
2019-03-09T10:28:00.938Z,98996.67
2019-03-09T10:30:31.963Z,98985.69
2019-03-09T10:33:02.397Z,98990.61
2019-03-09T10:35:33.139Z,98999.38
2019-03-09T10:38:04.776Z,98976.89
2019-03-09T10:40:35.589Z,98985.02
2019-03-09T10:43:06.144Z,98980.58
2019-03-09T10:45:36.938Z,98988.03
2019-03-09T10:48:07.685Z,98985.29
2019-03-09T10:50:38.125Z,98977.57
2019-03-09T10:53:08.607Z,98982.63
2019-03-09T10:55:39.049Z,98965.27
2019-03-09T10:58:09.587Z,98980.72
2019-03-09T11:00:40.117Z,98990.80
2019-03-09T11:03:10.924Z,98962.16
2019-03-09T11:05:41.385Z,98992.95
2019-03-09T11:08:11.865Z,98985.70
2019-03-09T11:10:42.293Z,98993.75
2019-03-09T11:13:12.836Z,98996.87
2019-03-09T11:15:44.375Z,99008.66
2019-03-09T11:18:15.158Z,99009.19
2019-03-09T11:20:45.589Z,99000.87
2019-03-09T11:23:16.078Z,98992.43
2019-03-09T11:25:47.504Z,98985.17
2019-03-09T11:28:17.993Z,98989.04
2019-03-09T11:30:48.448Z,98980.59
2019-03-09T11:33:19.959Z,98962.02
2019-03-09T11:35:52.469Z,98975.61
2019-03-09T11:38:24.872Z,98967.23
2019-03-09T11:40:58.520Z,98944.13
2019-03-09T11:43:27.445Z,98947.62
2019-03-09T11:45:59.129Z,98947.23
2019-03-09T11:48:29.564Z,98930.37
2019-03-09T11:51:01.830Z,98917.54
2019-03-09T11:53:32.313Z,98917.21
2019-03-09T11:56:03.248Z,98922.09
2019-03-09T11:58:34.738Z,98910.97
2019-03-09T12:01:05.297Z,98904.88
2019-03-09T12:03:35.746Z,98894.98
2019-03-09T12:06:06.225Z,98908.05
2019-03-09T12:08:37.059Z,98906.89
2019-03-09T12:11:59.723Z,98916.60
2019-03-09T12:14:30.456Z,98917.22
2019-03-09T12:17:01.247Z,98917.17
2019-03-09T12:19:31.719Z,98913.55
2019-03-09T12:22:02.159Z,98915.84
2019-03-09T12:24:33.256Z,98904.50
2019-03-09T12:27:03.780Z,98897.80
2019-03-09T12:29:34.378Z,98891.09
2019-03-09T12:32:04.834Z,98880.73
2019-03-09T12:34:35.678Z,98874.11
2019-03-09T12:37:06.121Z,98862.20
2019-03-09T12:39:36.564Z,98854.69
2019-03-09T12:42:07.032Z,98854.38
2019-03-09T12:44:37.560Z,98856.73
2019-03-09T12:47:08.017Z,98851.33
2019-03-09T12:49:38.611Z,98839.60
2019-03-09T12:52:09.058Z,98840.73
2019-03-09T12:54:39.575Z,98839.03
2019-03-09T12:57:10.414Z,98836.92
2019-03-09T12:59:40.842Z,98823.44
2019-03-09T13:02:11.286Z,98823.84
2019-03-09T13:04:41.773Z,98809.78
2019-03-09T13:07:12.506Z,98805.27
2019-03-09T13:09:42.980Z,98804.74
2019-03-09T13:12:13.780Z,98799.39
2019-03-09T13:14:44.234Z,98793.67
2019-03-09T13:17:15.386Z,98790.95
2019-03-09T13:19:45.849Z,98784.07
2019-03-09T13:22:16.699Z,98788.16
2019-03-09T13:24:47.559Z,98776.01
2019-03-09T13:27:18.032Z,98767.29
2019-03-09T13:29:48.553Z,98731.99
2019-03-09T13:32:20.124Z,98741.73
2019-03-09T13:34:50.957Z,98739.59
2019-03-09T13:37:21.425Z,98738.45
2019-03-09T13:39:51.887Z,98722.46
2019-03-09T13:42:22.344Z,98736.36
2019-03-09T13:44:53.214Z,98723.95
2019-03-09T13:47:23.837Z,98715.13
2019-03-09T13:49:54.253Z,98721.02
2019-03-09T13:52:25.359Z,98714.93
2019-03-09T13:54:55.804Z,98709.02
2019-03-09T13:57:26.269Z,98718.78
2019-03-09T13:59:56.703Z,98709.50
2019-03-09T14:02:27.490Z,98702.80
2019-03-09T14:05:00.329Z,98706.05
2019-03-09T14:07:32.236Z,98685.45
2019-03-09T14:10:02.973Z,98688.20
2019-03-09T14:12:33.886Z,98686.13
2019-03-09T14:15:05.096Z,98674.77
2019-03-09T14:17:37.406Z,98677.09
2019-03-09T14:20:08.549Z,98690.78
2019-03-09T14:22:38.992Z,98703.30
2019-03-09T14:25:10.056Z,98712.81
2019-03-09T14:27:42.351Z,98716.76
2019-03-09T14:30:14.379Z,98698.03
2019-03-09T14:32:44.908Z,98665.02
2019-03-09T14:35:16.000Z,98666.05
2019-03-09T14:37:46.604Z,98681.56
2019-03-09T14:40:17.179Z,98651.42
2019-03-09T14:42:49.476Z,98639.50
2019-03-09T14:45:20.348Z,98656.23
2019-03-09T14:47:50.864Z,98645.55
2019-03-09T14:50:21.313Z,98624.19
2019-03-09T14:52:51.761Z,98618.12
2019-03-09T14:55:22.296Z,98608.42
2019-03-09T14:57:52.739Z,98606.89
2019-03-09T15:00:23.539Z,98606.05
2019-03-09T15:02:54.012Z,98578.58
2019-03-09T15:05:24.463Z,98568.91
2019-03-09T15:07:54.880Z,98562.55
2019-03-09T15:10:25.401Z,98554.28
2019-03-09T15:12:55.806Z,98537.61
2019-03-09T15:15:26.580Z,98516.83
2019-03-09T15:17:57.055Z,98505.63
2019-03-09T15:20:27.495Z,98504.55
2019-03-09T15:22:58.326Z,98522.86
2019-03-09T15:25:28.763Z,98548.22
2019-03-09T15:27:59.219Z,98554.83
2019-03-09T15:30:29.708Z,98587.66
2019-03-09T15:33:00.198Z,98593.59
2019-03-09T15:35:30.624Z,98574.19
2019-03-09T15:38:01.381Z,98581.11
2019-03-09T15:40:31.832Z,98562.35
2019-03-09T15:43:02.261Z,98576.58
2019-03-09T15:45:33.119Z,98563.25
2019-03-09T15:48:03.956Z,98563.84
2019-03-09T15:50:34.387Z,98559.07
2019-03-09T15:53:04.904Z,98559.45
2019-03-09T15:55:35.358Z,98565.91
2019-03-09T15:58:06.293Z,98553.64
2019-03-09T16:00:36.811Z,98547.83
2019-03-09T16:03:07.556Z,98554.27
2019-03-09T16:05:38.709Z,98544.31
2019-03-09T16:08:09.181Z,98524.01
2019-03-09T16:10:41.645Z,98551.75
2019-03-09T16:13:14.221Z,98530.44
2019-03-09T16:15:44.694Z,98532.76
2019-03-09T16:18:15.196Z,98518.59
2019-03-09T16:20:45.650Z,98512.55
2019-03-09T16:23:16.077Z,98520.88
2019-03-09T16:25:46.536Z,98520.64
2019-03-09T16:28:17.374Z,98532.82
2019-03-09T16:30:47.845Z,98537.53
2019-03-09T16:33:18.304Z,98542.53
2019-03-09T16:35:49.117Z,98526.95
2019-03-09T16:38:19.565Z,98527.48
2019-03-09T16:40:49.992Z,98544.94
2019-03-09T16:43:20.467Z,98566.99
2019-03-09T16:45:50.916Z,98577.95
2019-03-09T16:48:21.392Z,98563.64
2019-03-09T16:50:52.170Z,98571.66
2019-03-09T16:53:23.040Z,98574.31
2019-03-09T16:55:53.483Z,98576.25
2019-03-09T16:58:23.957Z,98584.23
2019-03-09T17:00:54.405Z,98597.39
2019-03-09T17:03:24.892Z,98602.12
2019-03-09T17:05:55.670Z,98687.10
2019-03-09T17:08:26.105Z,98639.02
2019-03-09T17:10:56.560Z,98668.78
2019-03-09T17:13:27.011Z,98661.64
2019-03-09T17:15:57.485Z,98634.09
2019-03-09T17:18:27.927Z,98627.12
2019-03-09T17:20:58.356Z,98613.67
2019-03-09T17:23:28.847Z,98608.52
2019-03-09T17:25:59.664Z,98604.03
2019-03-09T17:28:30.159Z,98607.70
2019-03-09T17:31:00.634Z,98631.26
2019-03-09T17:33:31.063Z,98638.22
2019-03-09T17:36:01.850Z,98661.31
2019-03-09T17:38:34.306Z,98666.45
2019-03-09T17:41:06.264Z,98691.86
2019-03-09T17:43:38.837Z,98681.73
2019-03-09T17:46:09.263Z,98707.16
2019-03-09T17:48:40.143Z,98712.48
2019-03-09T17:51:10.568Z,98710.64
2019-03-09T17:53:41.065Z,98726.59
2019-03-09T17:56:12.453Z,98741.71
2019-03-09T17:58:43.259Z,98751.83
2019-03-09T18:01:13.831Z,98757.63
2019-03-09T18:03:44.254Z,98769.62
2019-03-09T18:06:14.686Z,98785.05
2019-03-09T18:08:45.542Z,98789.37
2019-03-09T18:11:15.999Z,98790.88
2019-03-09T18:13:46.460Z,98796.02
2019-03-09T18:16:17.238Z,98797.34
2019-03-09T18:18:49.995Z,98804.13
2019-03-09T18:21:20.844Z,98826.06
2019-03-09T18:23:51.281Z,98827.34
2019-03-09T18:26:21.796Z,98840.63
2019-03-09T18:28:52.252Z,98867.38
2019-03-09T18:31:22.741Z,98866.55
2019-03-09T18:33:55.189Z,98889.30
2019-03-09T18:36:25.983Z,98903.06
2019-03-09T18:38:56.476Z,98902.08
2019-03-09T18:41:28.022Z,98929.98
2019-03-09T18:43:58.759Z,98945.92
2019-03-09T18:46:29.392Z,98950.44
2019-03-09T18:48:59.819Z,98977.53
2019-03-09T18:51:30.609Z,98979.33
2019-03-09T18:54:03.187Z,98999.06
2019-03-09T18:56:34.435Z,99003.53
2019-03-09T18:59:05.374Z,99025.73
2019-03-09T19:01:35.799Z,99034.17
2019-03-09T19:04:06.319Z,99046.11
2019-03-09T19:06:36.766Z,99044.44
2019-03-09T19:09:09.611Z,99063.67
2019-03-09T19:11:42.026Z,99070.57
2019-03-09T19:14:12.463Z,99071.23
2019-03-09T19:16:43.603Z,99094.13
2019-03-09T19:19:14.443Z,99094.28
2019-03-09T19:21:45.282Z,99107.91
2019-03-09T19:24:15.719Z,99114.16
2019-03-09T19:26:46.177Z,99126.59
2019-03-09T19:29:16.755Z,99126.59
2019-03-09T19:31:47.618Z,99149.63
2019-03-09T19:34:18.666Z,99152.56
2019-03-09T19:36:49.175Z,99164.28
2019-03-09T19:39:27.064Z,99171.89
2019-03-09T19:41:57.931Z,99181.03
2019-03-09T19:44:28.404Z,99172.91
2019-03-09T19:46:58.910Z,99190.01
2019-03-09T19:49:31.851Z,99191.45
2019-03-09T19:52:03.961Z,99200.27
2019-03-09T19:54:37.207Z,99209.68
2019-03-09T19:57:07.633Z,99221.11
2019-03-09T19:59:38.084Z,99232.05
2019-03-09T20:02:08.838Z,99233.05
2019-03-09T20:04:39.358Z,99238.17
2019-03-09T20:07:10.107Z,99242.30
2019-03-09T20:09:40.855Z,99256.74
2019-03-09T20:12:11.994Z,99252.84
2019-03-09T20:14:43.156Z,99251.11
2019-03-09T20:17:13.682Z,99261.75
2019-03-09T20:19:44.534Z,99263.43
2019-03-09T20:22:16.950Z,99275.67
2019-03-09T20:24:48.130Z,99274.61
2019-03-09T20:27:19.583Z,99281.24
2019-03-09T20:29:55.932Z,99285.17
2019-03-09T20:32:26.839Z,99280.84
2019-03-09T20:34:57.262Z,99287.47
2019-03-09T20:37:27.762Z,99282.77
2019-03-09T20:39:58.240Z,99283.73
2019-03-09T20:42:29.368Z,99282.36
2019-03-09T20:45:00.582Z,99283.33
2019-03-09T20:47:31.026Z,99287.41
2019-03-09T20:50:02.155Z,99282.66
2019-03-09T20:52:33.030Z,99290.62
2019-03-09T20:55:04.163Z,99290.56
2019-03-09T20:57:34.596Z,99290.20
2019-03-09T21:00:06.652Z,99293.98
2019-03-09T21:02:37.139Z,99299.98
2019-03-09T21:05:08.779Z,99307.03
2019-03-09T21:07:39.560Z,99316.33
2019-03-09T21:10:11.524Z,99319.80
2019-03-09T21:12:55.937Z,99314.50
2019-03-09T21:15:26.587Z,99329.63
2019-03-09T21:17:57.613Z,99329.86
2019-03-09T21:20:29.147Z,99339.28
2019-03-09T21:23:01.242Z,99355.55
2019-03-09T21:25:32.547Z,99349.93
2019-03-09T21:28:03.012Z,99344.77
2019-03-09T21:30:33.497Z,99343.38
2019-03-09T21:33:04.295Z,99341.51
2019-03-09T21:35:34.739Z,99337.25
2019-03-09T21:38:05.181Z,99333.00
2019-03-09T21:40:35.652Z,99335.50
2019-03-09T21:43:06.375Z,99338.63
2019-03-09T21:45:36.820Z,99350.01
2019-03-09T21:48:07.306Z,99372.25
2019-03-09T21:50:37.752Z,99372.53
2019-03-09T21:53:08.179Z,99375.50
2019-03-09T21:55:38.664Z,99380.34
2019-03-09T21:58:11.708Z,99377.15
2019-03-09T22:00:42.161Z,99377.69
2019-03-09T22:03:12.832Z,99368.91
2019-03-09T22:05:43.286Z,99372.31
2019-03-09T22:08:13.769Z,99371.49
2019-03-09T22:10:44.208Z,99376.36
2019-03-09T22:13:14.679Z,99382.38
2019-03-09T22:15:45.140Z,99384.52
2019-03-09T22:18:15.912Z,99373.31
2019-03-09T22:20:46.339Z,99376.64
2019-03-09T22:23:17.139Z,99367.30
2019-03-09T22:25:47.575Z,99370.02
2019-03-09T22:28:19.356Z,99360.89
2019-03-09T22:30:49.763Z,99360.47
2019-03-09T22:33:20.277Z,99354.81
2019-03-09T22:35:50.709Z,99365.19
2019-03-09T22:38:21.134Z,99357.95
2019-03-09T22:40:51.625Z,99360.32
2019-03-09T22:43:22.425Z,99369.73
2019-03-09T22:45:52.865Z,99366.44
2019-03-09T22:48:23.369Z,99361.14
2019-03-09T22:50:54.159Z,99356.48
2019-03-09T22:53:24.586Z,99352.30
2019-03-09T22:55:55.043Z,99360.11
2019-03-09T22:58:25.477Z,99362.61
2019-03-09T23:00:56.016Z,99368.34
2019-03-09T23:03:26.755Z,99369.59
2019-03-09T23:05:57.247Z,99364.65
2019-03-09T23:08:27.669Z,99358.52
2019-03-09T23:10:59.226Z,99363.18
2019-03-09T23:13:30.062Z,99356.44
2019-03-09T23:16:01.673Z,99353.58
2019-03-09T23:18:32.155Z,99346.88
2019-03-09T23:21:03.549Z,99342.97
2019-03-09T23:23:33.979Z,99346.05
2019-03-09T23:26:04.462Z,99352.09
2019-03-09T23:28:48.841Z,99364.74
2019-03-09T23:31:19.705Z,99349.30
2019-03-09T23:33:50.180Z,99346.54
2019-03-09T23:36:20.659Z,99344.10
2019-03-09T23:38:51.092Z,99357.00
2019-03-09T23:41:21.554Z,99359.72
2019-03-09T23:43:52.388Z,99370.19
2019-03-09T23:46:22.849Z,99368.92
2019-03-09T23:48:53.497Z,99370.47
2019-03-09T23:51:24.367Z,99362.52
2019-03-09T23:53:54.800Z,99374.43
2019-03-09T23:56:25.236Z,99377.00
2019-03-09T23:58:55.712Z,99381.83
